createdAt,value
2019-04-25T00:07:59.410Z,8.23
2019-04-25T00:10:28.517Z,7.53
2019-04-25T00:12:56.662Z,6.60
2019-04-25T00:15:24.783Z,8.85
2019-04-25T00:17:52.883Z,6.83
2019-04-25T00:20:21.772Z,6.85
2019-04-25T00:22:51.542Z,7.15
2019-04-25T00:25:19.453Z,7.33
2019-04-25T00:27:47.488Z,6.85
2019-04-25T00:30:15.990Z,7.00
2019-04-25T00:32:45.255Z,6.42
2019-04-25T00:35:13.251Z,7.40
2019-04-25T00:37:44.088Z,7.25
2019-04-25T00:40:13.627Z,7.50
2019-04-25T00:42:43.626Z,6.70
2019-04-25T00:45:14.054Z,6.73
2019-04-25T00:47:43.351Z,6.97
2019-04-25T00:50:12.005Z,7.25
2019-04-25T00:52:43.543Z,6.58
2019-04-25T00:55:13.175Z,7.28
2019-04-25T00:57:42.692Z,6.72
2019-04-25T01:00:11.609Z,6.37
2019-04-25T01:02:40.069Z,6.17
2019-04-25T01:05:08.258Z,6.00
2019-04-25T01:07:36.965Z,6.03
2019-04-25T01:10:05.103Z,5.90
2019-04-25T01:12:33.599Z,5.03
2019-04-25T01:15:02.114Z,5.78
2019-04-25T01:17:31.419Z,5.15
2019-04-25T01:19:59.385Z,5.78
2019-04-25T01:22:27.890Z,5.05
2019-04-25T01:24:57.887Z,4.97
2019-04-25T01:27:26.915Z,5.50
2019-04-25T01:29:55.537Z,6.05
2019-04-25T01:32:24.343Z,5.67
2019-04-25T01:34:54.911Z,5.83
2019-04-25T01:37:23.659Z,4.87
2019-04-25T01:39:53.596Z,5.33
2019-04-25T01:42:23.586Z,5.40
2019-04-25T01:44:53.799Z,5.22
2019-04-25T01:47:21.786Z,5.28
2019-04-25T01:49:50.288Z,5.35
2019-04-25T01:52:18.310Z,5.30
2019-04-25T01:54:46.408Z,5.17
2019-04-25T01:57:14.664Z,5.17
2019-04-25T01:59:43.872Z,5.28
2019-04-25T02:02:13.961Z,5.40
2019-04-25T02:04:41.594Z,4.85
2019-04-25T02:07:10.713Z,4.87
2019-04-25T02:09:39.224Z,5.10
2019-04-25T02:12:07.244Z,5.22
2019-04-25T02:14:35.506Z,5.00
2019-04-25T02:17:04.534Z,5.22
2019-04-25T02:19:34.272Z,5.05
2019-04-25T02:22:03.896Z,5.22
2019-04-25T02:24:31.286Z,5.20
2019-04-25T02:26:59.553Z,5.20
2019-04-25T02:29:27.977Z,5.35
2019-04-25T02:31:59.146Z,5.62
2019-04-25T02:34:25.782Z,5.40
2019-04-25T02:36:58.910Z,5.50
2019-04-25T02:39:24.651Z,5.62
2019-04-25T02:41:56.013Z,6.00
2019-04-25T02:44:29.069Z,5.35
2019-04-25T02:47:00.311Z,5.60
2019-04-25T02:49:35.551Z,5.55
2019-04-25T02:51:59.266Z,5.87
2019-04-25T02:54:27.757Z,5.58
2019-04-25T02:56:57.039Z,5.65
2019-04-25T02:59:26.379Z,6.22
2019-04-25T03:01:54.355Z,5.78
2019-04-25T03:04:23.907Z,6.22
2019-04-25T03:06:51.640Z,5.97
2019-04-25T03:09:20.035Z,6.90
2019-04-25T03:11:48.268Z,6.28
2019-04-25T03:14:16.325Z,6.58
2019-04-25T03:16:45.000Z,6.50
2019-04-25T03:19:14.138Z,6.92
2019-04-25T03:21:45.216Z,6.60
2019-04-25T03:24:14.006Z,6.65
2019-04-25T03:26:40.951Z,6.45
2019-04-25T03:29:09.375Z,6.55
2019-04-25T03:31:38.689Z,6.58
2019-04-25T03:34:10.221Z,7.15
2019-04-25T03:36:35.654Z,6.72
2019-04-25T03:39:04.263Z,6.65
2019-04-25T03:41:34.105Z,6.85
2019-04-25T03:44:04.532Z,7.05
2019-04-25T03:46:33.353Z,6.80
2019-04-25T03:49:02.111Z,7.12
2019-04-25T03:51:31.245Z,7.37
2019-04-25T03:53:59.118Z,6.60
2019-04-25T03:56:26.982Z,6.78
2019-04-25T03:58:55.038Z,6.95
2019-04-25T04:01:24.249Z,7.42
2019-04-25T04:03:53.759Z,6.92
2019-04-25T04:06:24.016Z,6.87
2019-04-25T04:08:53.795Z,6.53
2019-04-25T04:11:25.626Z,7.40
2019-04-25T04:13:55.487Z,7.62
2019-04-25T04:16:23.337Z,7.10
2019-04-25T04:18:52.098Z,7.08
2019-04-25T04:21:23.574Z,7.00
2019-04-25T04:23:58.770Z,7.10
2019-04-25T04:26:27.263Z,7.42
2019-04-25T04:28:55.109Z,7.08
2019-04-25T04:31:23.548Z,7.10
2019-04-25T04:33:55.165Z,7.55
2019-04-25T04:36:23.778Z,7.28
2019-04-25T04:38:54.223Z,7.28
2019-04-25T04:41:23.847Z,7.20
2019-04-25T04:43:51.439Z,7.33
2019-04-25T04:46:24.743Z,7.08
2019-04-25T04:48:54.088Z,6.92
2019-04-25T04:51:23.433Z,7.90
2019-04-25T04:53:53.698Z,7.30
2019-04-25T04:56:23.886Z,7.17
2019-04-25T04:58:53.943Z,7.00
2019-04-25T05:01:24.590Z,7.90
2019-04-25T05:03:52.000Z,7.80
2019-04-25T05:06:20.088Z,7.40
2019-04-25T05:08:49.681Z,7.67
2019-04-25T05:11:18.286Z,7.22
2019-04-25T05:13:46.372Z,7.53
2019-04-25T05:16:15.353Z,7.80
2019-04-25T05:18:44.606Z,7.83
2019-04-25T05:21:15.768Z,7.78
2019-04-25T05:23:44.341Z,8.15
2019-04-25T05:26:15.084Z,7.87
2019-04-25T05:28:45.368Z,8.03
2019-04-25T05:31:15.744Z,7.97
2019-04-25T05:33:43.677Z,8.33
2019-04-25T05:36:11.788Z,8.20
2019-04-25T05:38:41.363Z,8.95
2019-04-25T05:41:09.837Z,7.78
2019-04-25T05:43:37.971Z,8.13
2019-04-25T05:46:06.461Z,7.92
2019-04-25T05:48:34.777Z,7.95
2019-04-25T05:51:04.917Z,8.70
2019-04-25T05:53:33.485Z,7.83
2019-04-25T05:56:04.063Z,7.37
2019-04-25T05:58:33.822Z,8.35
2019-04-25T06:01:03.366Z,8.35
2019-04-25T06:03:31.920Z,8.33
2019-04-25T06:06:00.309Z,8.48
2019-04-25T06:08:29.297Z,7.97
2019-04-25T06:10:58.178Z,8.05
2019-04-25T06:13:28.687Z,8.48
2019-04-25T06:15:57.024Z,8.25
2019-04-25T06:18:26.490Z,8.45
2019-04-25T06:20:57.670Z,8.58
2019-04-25T06:23:26.941Z,8.50
2019-04-25T06:25:56.482Z,8.60
2019-04-25T06:28:26.216Z,8.23
2019-04-25T06:30:54.617Z,8.83
2019-04-25T06:33:24.685Z,8.03
2019-04-25T06:35:54.763Z,8.60
2019-04-25T06:38:26.033Z,8.68
2019-04-25T06:43:25.495Z,8.38
2019-04-25T06:45:55.462Z,9.25
2019-04-25T06:48:25.016Z,8.75
2019-04-25T06:50:53.701Z,8.10
2019-04-25T06:53:21.664Z,8.75
2019-04-25T06:55:50.412Z,8.70
2019-04-25T06:58:18.208Z,8.60
2019-04-25T07:00:58.176Z,8.83
2019-04-25T07:03:15.770Z,8.13
2019-04-25T07:05:44.027Z,8.30
2019-04-25T07:08:13.303Z,9.03
2019-04-25T07:10:44.485Z,8.90
2019-04-25T07:13:11.795Z,9.25
2019-04-25T07:15:40.859Z,8.75
2019-04-25T07:18:09.140Z,8.90
2019-04-25T07:20:36.863Z,8.33
2019-04-25T07:23:04.979Z,8.85
2019-04-25T07:25:35.305Z,8.68
2019-04-25T07:28:03.381Z,9.28
2019-04-25T07:30:46.847Z,8.90
2019-04-25T07:33:00.978Z,9.18
2019-04-25T07:35:29.269Z,9.05
2019-04-25T07:37:57.004Z,8.53
2019-04-25T07:40:25.688Z,8.63
2019-04-25T07:42:54.108Z,8.58
2019-04-25T07:45:23.963Z,8.43
2019-04-25T07:47:54.161Z,9.30
2019-04-25T07:50:23.911Z,9.10
2019-04-25T07:52:53.847Z,8.78
2019-04-25T07:55:23.396Z,8.73
2019-04-25T07:57:53.328Z,8.48
2019-04-25T08:00:21.131Z,8.93
2019-04-25T08:02:49.266Z,7.87
2019-04-25T08:05:17.181Z,7.80
2019-04-25T08:07:45.587Z,7.92
2019-04-25T08:10:14.049Z,7.83
2019-04-25T08:12:44.407Z,6.90
2019-04-25T08:15:13.963Z,6.90
2019-04-25T08:17:41.963Z,6.80
2019-04-25T08:20:09.967Z,6.70
2019-04-25T08:22:52.388Z,6.65
2019-04-25T08:25:08.573Z,5.73
2019-04-25T08:27:36.757Z,5.97
2019-04-25T08:30:06.438Z,5.65
2019-04-25T08:32:37.599Z,5.90
2019-04-25T08:35:05.575Z,5.92
2019-04-25T08:37:34.461Z,5.35
2019-04-25T08:40:04.010Z,5.55
2019-04-25T08:42:39.899Z,5.70
2019-04-25T08:45:08.986Z,5.75
2019-04-25T08:47:45.321Z,5.50
2019-04-25T08:50:26.313Z,5.35
2019-04-25T08:52:44.213Z,5.72
2019-04-25T08:55:17.354Z,5.87
2019-04-25T08:57:44.992Z,5.90
2019-04-25T09:00:14.367Z,6.37
2019-04-25T09:02:44.738Z,6.15
2019-04-25T09:05:15.991Z,6.45
2019-04-25T09:07:45.109Z,5.80
2019-04-25T09:10:13.480Z,6.03
2019-04-25T09:12:44.238Z,6.78
2019-04-25T09:15:13.946Z,6.65
2019-04-25T09:17:44.486Z,6.22
2019-04-25T09:20:13.942Z,6.80
2019-04-25T09:22:44.219Z,6.80
2019-04-25T09:25:13.710Z,7.00
2019-04-25T09:27:41.975Z,7.22
2019-04-25T09:30:14.219Z,7.30
2019-04-25T09:32:44.587Z,7.50
2019-04-25T09:35:13.723Z,6.95
2019-04-25T09:37:44.760Z,7.22
2019-04-25T09:40:11.555Z,7.53
2019-04-25T09:42:41.547Z,7.12
2019-04-25T09:45:09.427Z,7.97
2019-04-25T09:47:37.574Z,7.30
2019-04-25T09:50:06.786Z,7.47
2019-04-25T09:52:36.091Z,7.70
2019-04-25T09:55:04.313Z,7.37
2019-04-25T09:57:33.544Z,7.53
2019-04-25T10:00:03.514Z,6.42
2019-04-25T10:02:31.869Z,7.10
2019-04-25T10:05:00.444Z,6.67
2019-04-25T10:07:29.830Z,6.15
2019-04-25T10:09:59.145Z,6.33
2019-04-25T10:12:29.497Z,7.55
2019-04-25T10:17:31.859Z,7.03
2019-04-25T10:20:01.747Z,6.90
2019-04-25T10:22:36.307Z,6.55
2019-04-25T10:25:04.702Z,7.05
2019-04-25T10:27:32.649Z,6.67
2019-04-25T10:30:00.725Z,6.47
2019-04-25T10:32:29.992Z,7.53
2019-04-25T10:34:58.534Z,7.20
2019-04-25T10:37:27.046Z,7.08
2019-04-25T10:39:55.703Z,7.40
2019-04-25T10:42:25.343Z,6.85
2019-04-25T10:44:56.641Z,7.15
2019-04-25T10:49:53.627Z,6.92
2019-04-25T10:52:21.137Z,6.75
2019-04-25T10:54:49.676Z,7.33
2019-04-25T10:57:17.842Z,7.40
2019-04-25T10:59:56.022Z,7.03
2019-04-25T11:02:15.433Z,7.60
2019-04-25T11:04:44.246Z,7.05
2019-04-25T11:07:14.019Z,7.30
2019-04-25T11:09:44.949Z,7.10
2019-04-25T11:12:12.779Z,6.87
2019-04-25T11:14:42.234Z,7.42
2019-04-25T14:27:37.914Z,9.70
2019-04-25T14:30:07.251Z,7.87
2019-04-25T14:32:35.276Z,7.12
2019-04-25T14:35:03.465Z,6.42
2019-04-25T14:37:38.401Z,5.90
2019-04-25T14:40:01.827Z,5.65
2019-04-25T14:42:30.721Z,5.05
2019-04-25T14:44:58.955Z,4.40
2019-04-25T14:47:27.467Z,4.55
2019-04-25T14:49:55.271Z,3.77
2019-04-25T14:52:24.382Z,3.80
2019-04-25T14:54:53.139Z,3.52
2019-04-25T14:57:21.870Z,4.28
2019-04-25T14:59:50.491Z,3.30
2019-04-25T15:02:19.364Z,3.30
2019-04-25T15:04:47.262Z,3.30
2019-04-25T15:07:17.405Z,3.00
2019-04-25T15:09:45.472Z,3.08
2019-04-25T15:12:13.440Z,2.83
2019-04-25T15:14:41.619Z,3.37
2019-04-25T15:17:09.402Z,3.50
2019-04-25T15:19:38.354Z,3.08
2019-04-25T15:22:09.615Z,3.10
2019-04-25T15:24:41.349Z,3.33
2019-04-25T15:27:19.548Z,3.10
2019-04-25T15:29:48.246Z,2.70
2019-04-25T15:40:04.553Z,3.12
2019-04-25T15:42:32.317Z,3.10
2019-04-25T15:45:00.059Z,3.52
2019-04-25T15:47:34.168Z,3.27
2019-04-25T15:50:02.021Z,3.37
2019-04-25T15:52:29.681Z,3.45
2019-04-25T15:55:06.950Z,3.60
2019-04-25T15:57:28.182Z,3.50
2019-04-25T15:59:56.401Z,3.52
2019-04-25T16:02:24.580Z,3.65
2019-04-25T16:04:52.665Z,3.58
2019-04-25T16:07:21.830Z,3.72
2019-04-25T16:09:51.239Z,3.25
2019-04-25T16:12:19.227Z,3.85
2019-04-25T16:14:47.255Z,3.67
2019-04-25T16:17:15.255Z,3.40
2019-04-25T16:19:43.324Z,3.37
2019-04-25T16:22:11.409Z,3.72
2019-04-25T16:24:41.048Z,3.70
2019-04-25T16:27:10.315Z,3.20
2019-04-25T16:29:38.388Z,3.30
2019-04-25T16:32:06.756Z,3.50
2019-04-25T16:34:34.537Z,3.60
2019-04-25T16:37:02.606Z,3.60
2019-04-25T16:39:31.000Z,3.52
2019-04-25T16:42:00.096Z,3.30
2019-04-25T16:44:28.760Z,3.20
2019-04-25T16:46:58.073Z,2.60
2019-04-25T16:49:26.302Z,3.65
2019-04-25T16:51:54.297Z,3.15
2019-04-25T16:54:25.856Z,3.37
2019-04-25T16:56:53.655Z,3.17
2019-04-25T16:59:22.039Z,3.33
2019-04-25T17:01:50.092Z,3.40
2019-04-25T17:04:19.924Z,3.05
2019-04-25T17:06:47.770Z,3.10
2019-04-25T17:09:15.759Z,2.92
2019-04-25T17:11:43.923Z,3.10
2019-04-25T17:14:12.001Z,3.17
2019-04-25T17:16:42.328Z,3.12
2019-04-25T17:19:10.256Z,3.25
2019-04-25T17:21:39.178Z,3.15
2019-04-25T17:24:07.545Z,2.70
2019-04-25T17:26:36.664Z,2.90
2019-04-25T17:29:04.728Z,3.35
2019-04-25T17:31:34.091Z,3.00
2019-04-25T17:34:02.094Z,3.65
2019-04-25T17:36:33.149Z,3.20
2019-04-25T17:38:59.526Z,3.20
2019-04-25T17:41:27.563Z,3.10
2019-04-25T17:43:57.160Z,3.65
2019-04-25T17:46:26.659Z,3.47
2019-04-25T17:48:57.896Z,3.55
2019-04-25T17:51:25.983Z,3.45
2019-04-25T17:53:56.716Z,3.42
2019-04-25T17:56:25.089Z,3.62
2019-04-25T17:58:53.164Z,3.90
2019-04-25T18:01:24.206Z,4.00
2019-04-25T18:03:51.876Z,4.17
2019-04-25T18:06:21.106Z,4.35
2019-04-25T18:08:49.415Z,4.12
2019-04-25T18:11:17.410Z,4.40
2019-04-25T18:13:45.615Z,4.28
2019-04-25T18:16:13.667Z,4.35
2019-04-25T18:18:41.534Z,4.08
2019-04-25T18:21:09.519Z,4.10
2019-04-25T18:23:38.720Z,4.35
2019-04-25T18:26:06.780Z,4.35
2019-04-25T18:28:35.527Z,4.25
2019-04-25T18:31:03.954Z,4.35
2019-04-25T18:33:32.018Z,4.03
2019-04-25T18:36:00.916Z,4.53
2019-04-25T18:38:29.026Z,4.33
2019-04-25T18:40:57.268Z,3.87
2019-04-25T18:43:26.661Z,3.75
2019-04-25T18:45:54.959Z,4.72
2019-04-25T18:48:23.115Z,4.53
2019-04-25T18:50:51.594Z,4.53
2019-04-25T18:53:20.089Z,4.47
2019-04-25T18:55:48.059Z,4.45
2019-04-25T18:58:16.327Z,4.30
2019-04-25T19:00:47.806Z,4.03
2019-04-25T19:03:22.532Z,4.42
2019-04-25T19:05:47.193Z,4.47
2019-04-25T19:08:15.694Z,4.35
2019-04-25T19:10:45.113Z,4.53
2019-04-25T19:13:13.587Z,4.42
2019-04-25T19:15:45.164Z,4.50
2019-04-25T19:18:16.486Z,4.25
2019-04-25T19:20:50.299Z,4.05
2019-04-25T19:23:19.692Z,4.55
2019-04-25T19:25:47.883Z,4.17
2019-04-25T19:28:17.286Z,4.20
2019-04-25T19:30:45.465Z,4.15
2019-04-25T19:33:13.415Z,4.20
2019-04-25T19:35:41.705Z,3.92
2019-04-25T19:38:09.984Z,4.00
2019-04-25T19:40:38.318Z,3.83
2019-04-25T19:43:06.728Z,4.33
2019-04-25T19:45:34.497Z,4.55
2019-04-25T19:48:02.275Z,4.67
2019-04-25T19:50:30.230Z,4.60
2019-04-25T19:52:57.902Z,4.35
2019-04-25T19:55:26.004Z,4.30
2019-04-25T19:57:54.332Z,4.50
2019-04-25T20:00:22.012Z,4.50
2019-04-25T20:02:50.763Z,4.35
2019-04-25T20:05:18.880Z,4.53
2019-04-25T20:07:48.231Z,4.58
2019-04-25T20:10:20.043Z,4.55
2019-04-25T20:12:50.517Z,4.42
2019-04-25T20:15:17.620Z,4.62
2019-04-25T20:17:45.953Z,4.25
2019-04-25T20:20:14.264Z,4.33
2019-04-25T20:22:42.449Z,3.87
2019-04-25T20:25:10.219Z,4.47
2019-04-25T20:27:37.967Z,4.60
2019-04-25T20:30:06.068Z,4.40
2019-04-25T20:32:35.457Z,4.15
2019-04-25T20:35:05.102Z,4.22
2019-04-25T20:37:34.597Z,4.77
2019-04-25T20:40:02.864Z,4.03
2019-04-25T20:42:32.350Z,4.67
2019-04-25T20:45:02.444Z,4.28
2019-04-25T20:47:30.667Z,4.05
2019-04-25T20:49:59.149Z,5.10
2019-04-25T20:52:28.036Z,4.08
2019-04-25T20:54:57.136Z,4.17
2019-04-25T20:57:25.258Z,4.47
2019-04-25T20:59:53.934Z,4.25
2019-04-25T21:02:23.292Z,4.08
2019-04-25T21:04:52.171Z,4.20
2019-04-25T21:07:20.373Z,4.25
2019-04-25T21:09:48.987Z,3.60
2019-04-25T21:12:21.211Z,3.83
2019-04-25T21:14:49.378Z,3.77
2019-04-25T21:17:17.464Z,3.72
2019-04-25T21:19:45.633Z,4.05
2019-04-25T21:22:13.700Z,3.27
2019-04-25T21:24:42.583Z,3.72
2019-04-25T21:27:10.640Z,3.62
2019-04-25T21:29:38.854Z,3.50
2019-04-25T21:32:07.116Z,3.62
2019-04-25T21:34:35.102Z,3.83
2019-04-25T21:37:03.787Z,3.65
2019-04-25T21:39:37.057Z,3.72
2019-04-25T21:42:05.089Z,3.50
2019-04-25T21:44:33.446Z,3.58
2019-04-25T21:47:01.598Z,3.47
2019-04-25T21:49:30.703Z,3.40
2019-04-25T21:51:59.117Z,3.47
2019-04-25T21:54:33.116Z,3.25
2019-04-25T21:57:01.874Z,3.27
2019-04-25T21:59:31.181Z,2.83
2019-04-25T22:02:02.566Z,2.55
2019-04-25T22:04:38.829Z,11.50
2019-04-25T22:07:00.843Z,15.40
2019-04-25T22:09:30.515Z,14.90
2019-04-25T22:11:59.379Z,14.00
2019-04-25T22:14:28.007Z,13.83
2019-04-25T22:16:57.687Z,14.50
2019-04-25T22:19:26.419Z,14.05
2019-04-25T22:21:55.180Z,15.20
2019-04-25T22:24:23.890Z,15.10
2019-04-25T22:26:54.056Z,14.85
2019-04-25T22:29:22.916Z,15.32
2019-04-25T22:31:51.366Z,16.07
2019-04-25T22:34:21.796Z,17.10
2019-04-25T22:36:50.822Z,15.75
2019-04-25T22:39:19.260Z,17.02
2019-04-25T22:41:50.890Z,16.82
